Time;durP1;ratioP1;P1;durP2;ratioP2;P2;SDS_P1;SDS_P2;PMS_P1;PMS_P2;Temp;Humidity;BMP_temperature;BMP_pressure;BME280_temperature;BME280_humidity;BME280_pressure;Samples;Min_cycle;Max_cycle;Signal;HPM_P1;HPM_P2
2023/10/27 00:00:25;;;;;;;11.40;4.88;;;;;;;9.98;100.00;98787.06;5056978;28;20036;-67
2023/10/27 00:02:51;;;;;;;9.63;4.60;;;;;;;10.06;100.00;98791.94;5061572;28;20099;-67
2023/10/27 00:05:16;;;;;;;14.57;5.25;;;;;;;10.16;100.00;98783.78;5056780;28;20048;-67
2023/10/27 00:07:41;;;;;;;12.65;5.30;;;;;;;10.19;100.00;98782.81;5057372;28;20040;-66
2023/10/27 00:10:07;;;;;;;9.85;4.60;;;;;;;10.24;100.00;98781.72;5056102;28;20091;-67
2023/10/27 00:12:33;;;;;;;13.63;5.18;;;;;;;10.30;100.00;98785.81;5056729;28;20086;-67
2023/10/27 00:14:59;;;;;;;16.45;4.85;;;;;;;10.34;100.00;98778.81;5056304;28;20044;-66
2023/10/27 00:17:24;;;;;;;9.52;4.50;;;;;;;10.42;100.00;98784.50;5057804;28;20509;-68
2023/10/27 00:19:50;;;;;;;16.02;5.50;;;;;;;10.49;100.00;98791.13;5057312;28;20028;-67
2023/10/27 00:22:15;;;;;;;11.95;5.50;;;;;;;10.54;100.00;98786.59;5038852;28;20033;-66
2023/10/27 00:24:40;;;;;;;13.82;4.97;;;;;;;10.58;100.00;98788.16;5052462;28;20048;-67
2023/10/27 00:27:06;;;;;;;11.40;4.22;;;;;;;10.60;100.00;98784.63;5060243;28;20169;-66
2023/10/27 00:29:31;;;;;;;10.15;4.35;;;;;;;10.64;100.00;98788.78;5059728;28;20078;-66
2023/10/27 00:31:57;;;;;;;8.93;4.20;;;;;;;10.66;100.00;98781.78;5060709;28;20040;-67
2023/10/27 00:34:22;;;;;;;9.13;4.22;;;;;;;10.69;100.00;98784.25;5058706;28;20488;-67
2023/10/27 00:36:48;;;;;;;10.30;4.22;;;;;;;10.70;100.00;98782.50;5061848;28;20166;-67
2023/10/27 00:39:13;;;;;;;14.20;4.70;;;;;;;10.72;100.00;98786.72;5062099;28;20043;-66
2023/10/27 00:41:38;;;;;;;7.45;3.80;;;;;;;10.74;100.00;98782.31;5054602;28;20047;-67
2023/10/27 00:44:04;;;;;;;14.20;4.90;;;;;;;10.74;100.00;98784.09;5059598;28;20558;-66
2023/10/27 00:46:29;;;;;;;10.93;3.95;;;;;;;10.75;100.00;98780.56;5057199;28;20071;-66
2023/10/27 00:48:56;;;;;;;14.48;3.78;;;;;;;10.74;100.00;98773.75;5060516;28;21263;-66
2023/10/27 00:51:22;;;;;;;6.32;3.55;;;;;;;10.74;100.00;98779.72;5059183;28;20811;-66
2023/10/27 00:53:47;;;;;;;6.57;3.83;;;;;;;10.72;100.00;98776.38;5056925;28;20103;-62
2023/10/27 00:56:14;;;;;;;15.50;4.85;;;;;;;10.70;100.00;98774.75;5057638;28;20496;-62
2023/10/27 00:58:39;;;;;;;6.75;3.47;;;;;;;10.68;100.00;98779.16;5034787;28;20044;-62
2023/10/27 01:01:06;;;;;;;8.32;3.97;;;;;;;10.63;100.00;98776.75;5030738;28;20040;-62
2023/10/27 01:03:32;;;;;;;12.65;4.22;;;;;;;10.62;100.00;98776.81;5051683;28;20045;-63
2023/10/27 01:05:58;;;;;;;9.05;4.47;;;;;;;10.61;100.00;98777.72;5047355;28;20090;-62
2023/10/27 01:08:23;;;;;;;7.88;3.67;;;;;;;10.61;100.00;98780.28;5031581;28;20069;-62
2023/10/27 01:10:48;;;;;;;8.63;4.03;;;;;;;10.62;100.00;98782.00;5033743;28;20036;-62
2023/10/27 01:13:14;;;;;;;15.65;4.60;;;;;;;10.64;100.00;98782.75;5028558;28;20622;-62
2023/10/27 01:15:39;;;;;;;9.88;4.32;;;;;;;10.67;100.00;98783.47;5032502;28;20527;-62
2023/10/27 01:18:04;;;;;;;14.25;4.22;;;;;;;10.71;100.00;98774.69;5036281;28;20385;-62
2023/10/27 01:20:30;;;;;;;10.77;4.57;;;;;;;10.75;100.00;98776.25;5032638;28;20045;-62
2023/10/27 01:22:55;;;;;;;12.82;4.68;;;;;;;10.78;100.00;98764.94;5036983;28;20071;-62
2023/10/27 01:25:21;;;;;;;9.32;3.53;;;;;;;10.81;100.00;98772.56;5033868;28;20106;-62
2023/10/27 01:27:46;;;;;;;15.13;4.28;;;;;;;10.83;100.00;98765.63;5029482;28;20061;-62
2023/10/27 01:30:12;;;;;;;11.75;3.80;;;;;;;10.86;100.00;98762.06;5032030;28;20641;-62
2023/10/27 01:32:40;;;;;;;11.75;4.28;;;;;;;10.87;100.00;98767.16;5034329;28;20444;-62
2023/10/27 01:35:06;;;;;;;11.75;4.10;;;;;;;10.93;100.00;98758.31;5035332;28;20025;-62
2023/10/27 01:37:31;;;;;;;12.15;4.22;;;;;;;10.96;100.00;98756.44;5037643;28;20809;-62
2023/10/27 01:39:57;;;;;;;16.23;3.83;;;;;;;10.99;100.00;98755.47;5033002;28;20041;-62
2023/10/27 01:42:23;;;;;;;11.38;3.90;;;;;;;11.00;100.00;98755.41;5029371;28;20044;-62
2023/10/27 01:44:48;;;;;;;13.00;4.72;;;;;;;11.01;100.00;98756.25;5035821;28;20044;-62
2023/10/27 01:47:14;;;;;;;10.25;3.95;;;;;;;11.03;100.00;98759.59;5037974;28;20029;-62
2023/10/27 01:49:39;;;;;;;13.52;4.05;;;;;;;11.04;100.00;98759.53;5021358;28;20497;-62
2023/10/27 01:52:04;;;;;;;9.20;3.63;;;;;;;11.05;100.00;98762.97;5044682;28;20305;-62
2023/10/27 01:54:30;;;;;;;12.20;4.03;;;;;;;11.06;100.00;98754.31;5034353;28;20033;-64
2023/10/27 01:56:55;;;;;;;15.80;4.60;;;;;;;11.06;100.00;98736.22;5037455;28;20041;-63
2023/10/27 01:59:20;;;;;;;10.23;3.85;;;;;;;11.02;100.00;98734.66;5037029;28;20087;-64
2023/10/27 02:01:46;;;;;;;12.55;3.60;;;;;;;10.99;100.00;98732.19;5042291;28;20028;-64
2023/10/27 02:04:11;;;;;;;26.10;5.47;;;;;;;10.97;100.00;98736.59;5037758;28;20045;-64
2023/10/27 02:06:37;;;;;;;10.35;3.92;;;;;;;10.97;100.00;98721.94;5043620;28;20036;-64
2023/10/27 02:09:02;;;;;;;11.68;4.10;;;;;;;10.99;100.00;98727.88;5039973;28;20166;-63
2023/10/27 02:11:27;;;;;;;10.32;3.70;;;;;;;10.98;100.00;98726.19;5040886;28;20036;-63
2023/10/27 02:13:53;;;;;;;19.10;4.53;;;;;;;10.96;100.00;98720.25;5042123;28;20094;-63
2023/10/27 02:16:18;;;;;;;13.25;3.80;;;;;;;10.95;100.00;98718.56;5035543;28;20590;-64
2023/10/27 02:18:44;;;;;;;12.20;3.67;;;;;;;10.94;100.00;98710.88;5037133;28;20585;-64
2023/10/27 02:21:09;;;;;;;11.02;3.40;;;;;;;10.93;100.00;98711.78;5042525;28;20041;-64
2023/10/27 02:23:34;;;;;;;13.80;3.72;;;;;;;10.90;100.00;98711.91;5043039;28;20563;-63
2023/10/27 02:26:00;;;;;;;11.52;3.28;;;;;;;10.89;100.00;98699.91;5040208;28;20036;-63
2023/10/27 02:28:25;;;;;;;13.80;3.25;;;;;;;10.88;100.00;98703.38;5031462;28;20157;-64
2023/10/27 02:30:51;;;;;;;8.43;3.08;;;;;;;10.88;100.00;98698.22;5033396;28;20122;-63
2023/10/27 02:33:16;;;;;;;15.60;3.75;;;;;;;10.89;100.00;98697.31;5037870;28;20049;-63
2023/10/27 02:35:42;;;;;;;15.82;4.65;;;;;;;10.89;100.00;98698.13;5044140;28;20041;-63
2023/10/27 02:38:07;;;;;;;13.70;3.38;;;;;;;10.89;100.00;98694.75;5037942;28;20111;-63
2023/10/27 02:40:36;;;;;;;9.63;3.83;;;;;;;10.88;100.00;98693.88;5040725;28;20041;-64
2023/10/27 02:43:01;;;;;;;10.63;3.35;;;;;;;10.88;100.00;98693.88;5040975;28;20041;-63
2023/10/27 02:45:26;;;;;;;11.45;4.18;;;;;;;10.87;100.00;98692.19;5040437;28;20084;-63
2023/10/27 02:47:52;;;;;;;10.32;3.10;;;;;;;10.88;100.00;98691.31;5035958;28;20040;-62
2023/10/27 02:50:17;;;;;;;11.32;3.70;;;;;;;10.87;100.00;98683.59;5036247;28;20040;-66
2023/10/27 02:52:43;;;;;;;11.18;3.30;;;;;;;10.86;100.00;98687.94;5044057;28;20116;-66
2023/10/27 02:55:08;;;;;;;14.55;3.50;;;;;;;10.86;100.00;98676.78;5032583;28;20045;-67
2023/10/27 02:57:34;;;;;;;13.23;3.67;;;;;;;10.87;100.00;98678.44;5043141;28;20084;-66
2023/10/27 02:59:59;;;;;;;13.02;3.90;;;;;;;10.87;100.00;98679.28;5040852;28;20044;-67
2023/10/27 03:02:25;;;;;;;10.65;3.22;;;;;;;10.87;100.00;98668.09;5041961;28;20057;-66
2023/10/27 03:04:51;;;;;;;11.27;3.92;;;;;;;10.88;100.00;98673.22;5035100;28;20029;-67
2023/10/27 03:07:17;;;;;;;13.85;4.20;;;;;;;10.87;100.00;98675.84;5034001;28;20428;-67
2023/10/27 03:09:43;;;;;;;9.75;3.47;;;;;;;10.87;100.00;98678.44;5037857;28;20091;-67
2023/10/27 03:12:08;;;;;;;11.50;3.53;;;;;;;10.85;100.00;98675.94;5038499;28;20033;-67
2023/10/27 03:14:34;;;;;;;11.73;3.58;;;;;;;10.83;100.00;98669.16;5048677;28;20107;-68
2023/10/27 03:16:59;;;;;;;10.00;3.60;;;;;;;10.82;100.00;98668.31;5058655;28;20129;-68
2023/10/27 03:19:24;;;;;;;9.15;3.85;;;;;;;10.81;100.00;98666.63;5049869;28;20114;-69
2023/10/27 03:21:50;;;;;;;12.13;3.50;;;;;;;10.78;100.00;98666.75;5040458;28;20590;-69
2023/10/27 03:24:15;;;;;;;9.45;3.67;;;;;;;10.77;100.00;98670.25;5059235;28;20037;-70
2023/10/27 03:26:41;;;;;;;13.55;4.05;;;;;;;10.74;100.00;98666.03;5064348;28;20061;-68
2023/10/27 03:29:07;;;;;;;13.30;3.55;;;;;;;10.73;100.00;98660.94;5056682;28;20452;-67
2023/10/27 03:31:33;;;;;;;9.75;3.70;;;;;;;10.71;100.00;98657.59;5063684;28;20040;-67
2023/10/27 03:33:59;;;;;;;16.63;4.55;;;;;;;10.70;100.00;98658.50;5063996;28;20041;-67
2023/10/27 03:36:25;;;;;;;15.23;4.00;;;;;;;10.67;100.00;98654.28;5035820;28;20041;-63
2023/10/27 03:38:50;;;;;;;10.63;4.35;;;;;;;10.66;100.00;98655.19;5053648;28;20573;-63
2023/10/27 03:41:15;;;;;;;14.23;5.00;;;;;;;10.65;100.00;98650.09;5053010;28;20033;-64
2023/10/27 03:43:41;;;;;;;15.20;4.78;;;;;;;10.62;100.00;98647.66;5057095;28;20028;-63
2023/10/27 03:46:07;;;;;;;19.05;4.65;;;;;;;10.61;100.00;98641.63;5054210;28;20058;-63
2023/10/27 03:48:34;;;;;;;12.68;4.45;;;;;;;10.62;100.00;98642.47;5053438;28;20569;-64
2023/10/27 03:51:02;;;;;;;14.38;4.18;;;;;;;10.61;100.00;98646.81;5057763;28;20510;-64
2023/10/27 03:53:28;;;;;;;17.58;5.38;;;;;;;10.60;100.00;98647.69;5057954;28;21311;-64
2023/10/27 03:55:53;;;;;;;17.27;5.80;;;;;;;10.59;100.00;98640.03;5053058;28;20153;-64
2023/10/27 03:58:18;;;;;;;12.13;4.63;;;;;;;10.58;100.00;98646.09;5060978;28;20067;-67
2023/10/27 04:00:44;;;;;;;10.32;4.32;;;;;;;10.55;100.00;98641.91;5059730;28;20078;-67
2023/10/27 04:03:10;;;;;;;21.40;5.45;;;;;;;10.54;100.00;98635.03;5056093;28;20572;-67
2023/10/27 04:05:36;;;;;;;13.25;5.93;;;;;;;10.54;100.00;98641.94;5061620;28;20672;-67
2023/10/27 04:08:01;;;;;;;27.55;5.10;;;;;;;10.53;100.00;98641.13;5054695;28;20040;-64
2023/10/27 04:10:28;;;;;;;13.38;5.18;;;;;;;10.55;100.00;98633.31;5038625;28;20040;-64
2023/10/27 04:12:53;;;;;;;15.80;5.75;;;;;;;10.55;100.00;98639.31;5055414;28;20704;-65
2023/10/27 04:15:18;;;;;;;13.40;4.40;;;;;;;10.58;100.00;98635.75;5049952;28;20047;-65
2023/10/27 04:17:44;;;;;;;13.98;4.90;;;;;;;10.60;100.00;98636.53;5045461;28;20879;-65
2023/10/27 04:20:09;;;;;;;14.13;4.70;;;;;;;10.64;100.00;98635.50;5034685;28;20039;-65
2023/10/27 04:22:35;;;;;;;18.88;6.10;;;;;;;10.66;100.00;98642.28;5054733;28;20044;-65
2023/10/27 04:25:00;;;;;;;17.25;5.35;;;;;;;10.66;100.00;98637.09;5044105;28;20558;-65
2023/10/27 04:27:28;;;;;;;17.25;4.50;;;;;;;10.67;100.00;98638.78;5038536;28;20033;-65
2023/10/27 04:29:53;;;;;;;17.30;4.88;;;;;;;10.67;100.00;98637.94;5054322;28;20037;-66
2023/10/27 04:32:20;;;;;;;13.30;4.78;;;;;;;10.67;100.00;98633.63;5052570;28;20032;-65
2023/10/27 04:34:46;;;;;;;16.70;4.60;;;;;;;10.67;100.00;98636.22;5057380;28;20035;-65
2023/10/27 04:37:11;;;;;;;13.68;5.03;;;;;;;10.67;100.00;98641.38;5057041;28;20037;-65
2023/10/27 04:39:37;;;;;;;19.88;5.53;;;;;;;10.69;100.00;98638.72;5055837;28;20044;-65
2023/10/27 04:42:02;;;;;;;12.93;5.72;;;;;;;10.69;100.00;98641.28;5056085;28;20037;-64
2023/10/27 04:44:27;;;;;;;13.55;4.63;;;;;;;10.70;100.00;98636.09;5056786;28;20521;-65
2023/10/27 04:46:53;;;;;;;14.88;4.85;;;;;;;10.71;100.00;98637.75;5055421;28;20032;-67
2023/10/27 04:49:18;;;;;;;15.82;5.57;;;;;;;10.73;100.00;98645.44;5054750;28;20041;-64
2023/10/27 04:51:44;;;;;;;22.40;5.13;;;;;;;10.74;100.00;98636.78;5044252;28;20072;-64
2023/10/27 04:54:10;;;;;;;15.85;5.57;;;;;;;10.76;100.00;98641.00;5037971;28;20041;-65
2023/10/27 04:56:35;;;;;;;21.90;6.38;;;;;;;10.78;100.00;98641.75;5021647;28;20076;-65
2023/10/27 04:59:00;;;;;;;13.05;5.35;;;;;;;10.78;100.00;98638.31;5032714;28;20691;-65
2023/10/27 05:01:26;;;;;;;17.05;5.47;;;;;;;10.78;100.00;98640.91;5034099;28;20040;-64
2023/10/27 05:03:51;;;;;;;18.40;6.63;;;;;;;10.82;100.00;98644.22;5033473;28;20052;-65
2023/10/27 05:06:17;;;;;;;18.70;6.00;;;;;;;10.82;100.00;98641.63;5045313;28;20039;-65
2023/10/27 05:08:42;;;;;;;26.48;7.10;;;;;;;10.84;100.00;98650.13;5053986;28;20040;-64
2023/10/27 05:11:08;;;;;;;20.00;6.30;;;;;;;10.84;100.00;98642.38;5055189;28;20124;-65
2023/10/27 05:13:33;;;;;;;20.17;6.85;;;;;;;10.85;100.00;98641.50;5037651;28;20144;-65
2023/10/27 05:15:59;;;;;;;20.85;6.03;;;;;;;10.86;100.00;98644.00;5036483;28;20675;-66
2023/10/27 05:18:25;;;;;;;21.42;6.75;;;;;;;10.88;100.00;98646.53;5036279;28;20128;-66
2023/10/27 05:20:51;;;;;;;15.88;6.70;;;;;;;10.89;100.00;98640.47;5037130;28;20335;-66
2023/10/27 05:23:16;;;;;;;24.13;6.45;;;;;;;10.89;100.00;98646.44;5037142;28;20642;-66
2023/10/27 05:25:43;;;;;;;29.70;7.10;;;;;;;10.91;100.00;98646.41;5036960;28;20033;-66
2023/10/27 05:28:08;;;;;;;16.73;5.80;;;;;;;10.91;100.00;98643.81;5041068;28;20685;-66
2023/10/27 05:30:34;;;;;;;19.63;6.50;;;;;;;10.91;100.00;98643.81;5048335;28;20147;-65
2023/10/27 05:33:00;;;;;;;21.88;6.47;;;;;;;10.91;100.00;98646.41;5053875;28;20419;-66
2023/10/27 05:35:26;;;;;;;20.98;6.93;;;;;;;10.90;100.00;98650.72;5052592;28;20031;-65
2023/10/27 05:37:51;;;;;;;17.85;6.93;;;;;;;10.92;100.00;98642.91;5020336;28;20032;-65
2023/10/27 05:40:16;;;;;;;20.45;6.93;;;;;;;10.92;100.00;98656.66;5052104;28;20041;-65
2023/10/27 05:42:42;;;;;;;19.45;6.65;;;;;;;10.93;100.00;98652.31;5054770;28;20033;-65
2023/10/27 05:45:08;;;;;;;24.52;7.32;;;;;;;10.93;100.00;98639.41;5052780;28;20033;-65
2023/10/27 05:47:33;;;;;;;19.63;6.90;;;;;;;10.93;100.00;98647.16;5051739;28;20491;-66
2023/10/27 05:49:59;;;;;;;18.15;7.53;;;;;;;10.93;100.00;98648.00;5054075;28;20036;-66
2023/10/27 05:52:24;;;;;;;21.45;6.95;;;;;;;10.93;100.00;98647.16;5051696;28;20602;-67
2023/10/27 05:54:49;;;;;;;16.92;6.88;;;;;;;10.93;100.00;98647.16;5048310;28;20123;-67
2023/10/27 05:57:15;;;;;;;22.40;7.53;;;;;;;10.91;100.00;98649.81;5056760;28;20766;-67
2023/10/27 05:59:40;;;;;;;22.10;7.10;;;;;;;10.91;100.00;98642.06;5060713;28;20491;-68
2023/10/27 06:02:06;;;;;;;22.35;6.80;;;;;;;10.92;100.00;98650.66;5059345;28;21336;-67
2023/10/27 06:04:34;;;;;;;15.05;6.60;;;;;;;10.92;100.00;98656.66;5039866;28;20523;-72
2023/10/27 06:07:00;;;;;;;20.50;6.63;;;;;;;10.93;100.00;98648.00;5026839;28;20388;-71
2023/10/27 06:09:27;;;;;;;24.30;7.82;;;;;;;10.94;100.00;98647.09;5053612;28;20115;-73
2023/10/27 06:11:53;;;;;;;19.70;6.80;;;;;;;10.93;100.00;98645.41;5055999;28;20040;-72
2023/10/27 06:14:20;;;;;;;13.65;6.15;;;;;;;10.93;100.00;98647.16;5058906;28;20086;-73
2023/10/27 06:16:46;;;;;;;20.92;6.78;;;;;;;10.92;100.00;98646.31;5064206;28;20029;-75
2023/10/27 06:19:11;;;;;;;15.95;6.20;;;;;;;10.93;100.00;98647.16;5030240;28;20365;-74
2023/10/27 06:21:36;;;;;;;17.75;6.43;;;;;;;10.94;100.00;98646.25;5041956;28;20079;-74
2023/10/27 06:24:03;;;;;;;18.50;6.28;;;;;;;10.92;100.00;98648.09;5013860;28;20041;-74
2023/10/27 06:26:28;;;;;;;20.60;6.57;;;;;;;10.94;100.00;98643.69;5031290;28;20025;-73
2023/10/27 06:28:54;;;;;;;16.33;6.43;;;;;;;10.95;100.00;98646.19;5036917;28;20039;-73
2023/10/27 06:31:19;;;;;;;16.42;5.95;;;;;;;10.96;100.00;98642.69;5059230;28;20075;-73
2023/10/27 06:33:45;;;;;;;22.27;6.35;;;;;;;10.95;100.00;98643.59;5063439;28;20040;-74
2023/10/27 06:36:10;;;;;;;19.58;5.90;;;;;;;10.96;100.00;98647.03;5064031;28;20039;-73
2023/10/27 06:38:35;;;;;;;19.67;6.07;;;;;;;10.96;100.00;98645.28;5042507;28;20037;-74
2023/10/27 06:41:01;;;;;;;17.38;6.20;;;;;;;10.97;100.00;98646.13;5042911;28;20496;-73
2023/10/27 06:43:26;;;;;;;16.80;6.78;;;;;;;10.97;100.00;98646.97;5060786;28;20155;-74
2023/10/27 06:45:52;;;;;;;18.13;6.00;;;;;;;10.97;100.00;98648.72;5054777;28;20115;-74
2023/10/27 06:48:17;;;;;;;12.43;5.47;;;;;;;10.97;100.00;98649.56;5043867;28;20068;-72
2023/10/27 06:50:43;;;;;;;18.90;6.63;;;;;;;11.00;100.00;98656.34;5043054;28;20131;-74
2023/10/27 06:53:09;;;;;;;15.13;5.82;;;;;;;11.00;100.00;98654.59;5060590;28;20040;-74
2023/10/27 06:55:35;;;;;;;16.73;5.88;;;;;;;11.01;100.00;98655.44;5022953;28;20597;-73
2023/10/27 06:58:00;;;;;;;13.90;5.22;;;;;;;11.00;100.00;98654.59;5038959;28;20040;-75
2023/10/27 07:00:26;;;;;;;14.93;5.88;;;;;;;11.00;100.00;98659.75;5051647;28;20056;-73
2023/10/27 07:02:51;;;;;;;15.95;5.80;;;;;;;11.01;100.00;98658.84;5046421;28;20041;-72
2023/10/27 07:05:18;;;;;;;12.43;5.70;;;;;;;11.03;100.00;98658.78;5050803;28;20028;-74
2023/10/27 07:07:44;;;;;;;15.43;5.80;;;;;;;11.02;100.00;98660.53;5044126;28;20365;-73
2023/10/27 07:10:10;;;;;;;17.00;5.85;;;;;;;11.03;100.00;98666.53;5045336;28;20094;-66
2023/10/27 07:12:35;;;;;;;21.25;5.85;;;;;;;11.03;100.00;98667.38;5036722;28;20132;-67
2023/10/27 07:15:01;;;;;;;15.20;5.60;;;;;;;11.05;100.00;98664.72;5045147;28;20068;-72
2023/10/27 07:17:26;;;;;;;11.43;5.63;;;;;;;11.06;100.00;98669.84;5064699;28;20033;-72
2023/10/27 07:19:52;;;;;;;18.58;5.70;;;;;;;11.07;100.00;98674.09;5040453;28;20067;-73
2023/10/27 07:22:19;;;;;;;14.60;5.63;;;;;;;11.08;100.00;98678.34;5038910;28;20033;-73
2023/10/27 07:24:45;;;;;;;14.38;5.68;;;;;;;11.10;100.00;98675.72;5051728;28;20083;-73
2023/10/27 07:27:10;;;;;;;10.95;5.38;;;;;;;11.09;100.00;98680.03;5058549;28;20044;-73
2023/10/27 07:29:36;;;;;;;11.75;4.63;;;;;;;11.11;100.00;98688.56;5058381;28;20186;-73
2023/10/27 07:32:03;;;;;;;11.15;5.10;;;;;;;11.13;100.00;98689.31;5052770;28;20041;-71
2023/10/27 07:34:29;;;;;;;15.93;4.85;;;;;;;11.17;100.00;98693.47;5050781;28;20040;-72
2023/10/27 07:36:54;;;;;;;14.75;5.68;;;;;;;11.20;100.00;98689.91;5056926;28;20047;-73
2023/10/27 07:39:19;;;;;;;12.30;4.88;;;;;;;11.20;100.00;98695.91;5057792;28;20167;-73
2023/10/27 07:41:45;;;;;;;9.90;4.88;;;;;;;11.20;100.00;98695.91;5060831;28;20395;-73
2023/10/27 07:44:11;;;;;;;10.18;4.55;;;;;;;11.21;100.00;98702.78;5057463;28;20035;-71
2023/10/27 07:46:36;;;;;;;11.15;4.88;;;;;;;11.22;100.00;98698.44;5061501;28;20101;-73
2023/10/27 07:49:01;;;;;;;10.20;4.43;;;;;;;11.27;100.00;98704.25;5063733;28;20060;-72
2023/10/27 07:51:27;;;;;;;16.02;5.10;;;;;;;11.29;100.00;98703.28;5055864;28;20036;-72
2023/10/27 07:53:53;;;;;;;9.93;4.38;;;;;;;11.26;100.00;98706.00;5057278;28;20412;-72
2023/10/27 07:56:18;;;;;;;8.32;3.60;;;;;;;11.30;100.00;98702.38;5057866;28;20031;-72
2023/10/27 07:58:45;;;;;;;6.47;3.30;;;;;;;11.30;100.00;98704.13;5061481;28;20028;-71
2023/10/27 08:01:10;;;;;;;10.43;5.03;;;;;;;11.33;100.00;98707.41;5059110;28;20035;-71
2023/10/27 08:03:35;;;;;;;6.10;3.28;;;;;;;11.32;100.00;98712.66;5061601;28;20040;-72
2023/10/27 08:06:07;;;;;;;5.78;3.38;;;;;;;11.32;100.00;98710.06;5050204;28;20041;-72
2023/10/27 08:08:33;;;;;;;5.72;3.00;;;;;;;11.37;100.00;98709.88;5058953;28;20044;-72
2023/10/27 08:10:59;;;;;;;7.25;2.92;;;;;;;11.34;100.00;98705.66;5042887;28;20484;-73
2023/10/27 08:13:24;;;;;;;5.90;2.75;;;;;;;11.38;100.00;98719.28;5052561;28;20032;-72
2023/10/27 08:15:50;;;;;;;5.28;2.70;;;;;;;11.42;100.00;98713.09;5034991;28;20037;-71
2023/10/27 08:18:15;;;;;;;3.95;2.65;;;;;;;11.48;100.00;98715.44;5056443;28;20123;-70
2023/10/27 08:20:41;;;;;;;6.90;3.40;;;;;;;11.53;100.00;98716.91;5059699;28;20806;-73
2023/10/27 08:23:06;;;;;;;5.63;3.30;;;;;;;11.58;100.00;98719.28;5059019;28;20575;-73
2023/10/27 08:25:32;;;;;;;7.35;2.78;;;;;;;11.62;100.00;98721.66;5056107;28;20040;-72
2023/10/27 08:27:57;;;;;;;4.57;2.70;;;;;;;11.66;100.00;98727.56;5038404;28;20463;-73
2023/10/27 08:30:22;;;;;;;7.47;2.90;;;;;;;11.64;100.00;98726.75;5058313;28;20051;-72
2023/10/27 08:32:48;;;;;;;5.13;2.70;;;;;;;11.67;100.00;98732.63;5051486;28;20048;-72
2023/10/27 08:35:14;;;;;;;5.28;3.10;;;;;;;11.74;100.00;98730.63;5057167;28;20032;-72
2023/10/27 08:37:39;;;;;;;4.47;2.80;;;;;;;11.74;100.00;98735.81;5056331;28;20024;-71
2023/10/27 08:40:10;;;;;;;5.60;2.78;;;;;;;11.71;100.00;98731.59;5051614;28;20143;-71
2023/10/27 08:42:36;;;;;;;5.65;2.63;;;;;;;11.80;100.00;98736.38;5056588;28;20036;-71
2023/10/27 08:45:01;;;;;;;8.57;3.40;;;;;;;11.85;100.00;98742.16;5050087;28;20538;-70
2023/10/27 08:47:30;;;;;;;4.80;2.50;;;;;;;11.87;100.00;98737.75;5055018;28;20033;-70
2023/10/27 08:49:56;;;;;;;5.03;2.72;;;;;;;11.87;100.00;98744.69;5058055;28;20028;-69
2023/10/27 08:52:21;;;;;;;5.30;2.80;;;;;;;11.99;100.00;98741.50;5038064;28;20052;-69
2023/10/27 08:54:47;;;;;;;3.78;2.63;;;;;;;12.10;100.00;98747.06;5046090;28;20051;-69
2023/10/27 08:57:13;;;;;;;5.68;2.95;;;;;;;12.19;100.00;98749.22;5061666;28;20855;-69
2023/10/27 08:59:38;;;;;;;3.60;2.10;;;;;;;12.29;100.00;98744.41;5044674;28;20036;-69
2023/10/27 09:02:07;;;;;;;6.53;3.45;;;;;;;12.27;100.00;98744.50;5044367;28;20033;-69
2023/10/27 09:04:33;;;;;;;5.55;2.72;;;;;;;12.23;100.00;98749.91;5016788;28;20612;-69
2023/10/27 09:07:00;;;;;;;4.97;2.08;;;;;;;12.24;100.00;98749.84;5040452;28;20036;-69
2023/10/27 09:09:25;;;;;;;5.75;2.33;;;;;;;12.31;100.00;98740.03;5038050;28;20045;-70
2023/10/27 09:11:51;;;;;;;4.45;2.17;;;;;;;12.32;100.00;98745.13;5030379;28;20036;-69
2023/10/27 09:14:22;;;;;;;6.60;2.30;;;;;;;12.36;100.00;98749.25;5058298;28;20140;-69
2023/10/27 09:16:47;;;;;;;4.60;2.25;;;;;;;12.48;100.00;98739.22;5035071;28;20025;-70
2023/10/27 09:19:19;;;;;;;6.03;2.10;;;;;;;12.59;100.00;98745.56;5053711;28;20086;-70
2023/10/27 09:21:45;;;;;;;4.03;1.85;;;;;;;12.52;100.00;98746.78;5023361;28;20041;-70
2023/10/27 09:24:10;;;;;;;4.47;2.25;;;;;;;12.47;100.00;98746.13;5022787;28;20035;-71
2023/10/27 09:26:48;;;;;;;5.43;2.50;;;;;;;12.55;100.00;98750.97;5049576;28;20041;-70
2023/10/27 09:29:14;;;;;;;4.50;1.98;;;;;;;12.50;100.00;98752.91;5033907;28;20666;-69
2023/10/27 09:31:39;;;;;;;3.13;1.70;;;;;;;12.49;100.00;98761.63;5034377;28;20060;-71
2023/10/27 09:34:25;;;;;;;4.47;1.70;;;;;;;12.50;100.00;98758.94;5052562;28;20041;-70
2023/10/27 09:36:57;;;;;;;3.80;2.22;;;;;;;12.53;100.00;98761.41;5043643;28;20037;-70
2023/10/27 09:39:23;;;;;;;4.93;2.13;;;;;;;12.51;100.00;98750.28;5038322;28;20046;-70
2023/10/27 09:42:04;;;;;;;3.95;2.13;;;;;;;12.59;100.00;98757.66;5027691;28;20764;-70
2023/10/27 09:44:58;;;;;;;2.38;1.65;;;;;;;12.53;100.00;98763.13;5035458;28;20053;-70
2023/10/27 09:47:46;;;;;;;5.65;1.63;;;;;;;12.66;100.00;98764.25;5058519;28;20024;-70
2023/10/27 09:50:19;;;;;;;2.35;1.50;;;;;;;12.65;100.00;98762.56;5020057;28;20025;-69
2023/10/27 09:52:45;;;;;;;2.65;1.40;;;;;;;12.67;100.00;98760.75;5040645;28;20161;-70
2023/10/27 09:55:12;;;;;;;2.85;1.63;;;;;;;12.75;100.00;98763.78;5015775;28;20544;-70
2023/10/27 09:57:39;;;;;;;2.75;1.90;;;;;;;12.98;100.00;98766.94;5039306;28;20037;-70
2023/10/27 10:00:08;;;;;;;3.58;1.90;;;;;;;13.18;100.00;98760.75;5017278;28;20045;-69
2023/10/27 10:02:36;;;;;;;2.55;1.40;;;;;;;13.18;100.00;98767.72;5021862;28;20033;-70
2023/10/27 10:05:02;;;;;;;3.17;1.80;;;;;;;13.39;100.00;98767.44;5032323;28;20406;-70
2023/10/27 10:07:37;;;;;;;6.60;1.83;;;;;;;13.71;100.00;98770.97;5039054;28;20041;-70
2023/10/27 10:10:29;;;;;;;3.83;1.50;;;;;;;14.02;100.00;98771.03;5036396;28;20132;-69
2023/10/27 10:13:08;;;;;;;1.65;1.10;;;;;;;14.20;100.00;98774.38;5040935;28;20041;-70
2023/10/27 10:15:39;;;;;;;3.20;1.20;;;;;;;14.32;100.00;98773.72;5031459;28;20034;-71
2023/10/27 10:18:06;;;;;;;6.55;2.17;;;;;;;14.32;100.00;98778.91;5047646;28;20064;-70
2023/10/27 10:20:52;;;;;;;2.95;1.20;;;;;;;14.33;100.00;98775.41;5060900;28;20029;-70
2023/10/27 10:23:19;;;;;;;3.25;1.20;;;;;;;14.27;100.00;98778.31;5060104;28;20020;-70
2023/10/27 10:26:04;;;;;;;6.05;1.83;;;;;;;14.34;100.00;98774.44;5041407;28;20032;-70
2023/10/27 10:28:33;;;;;;;2.60;1.30;;;;;;;14.47;100.00;98770.28;5035019;28;20040;-70
2023/10/27 10:31:10;;;;;;;4.13;2.22;;;;;;;14.52;100.00;98773.47;5025974;28;20119;-69
2023/10/27 10:33:40;;;;;;;2.50;1.88;;;;;;;14.46;100.00;98772.97;5023557;28;20049;-71
2023/10/27 10:36:18;;;;;;;2.45;1.45;;;;;;;14.39;100.00;98772.50;5036885;28;20049;-70
2023/10/27 10:38:55;;;;;;;3.75;2.08;;;;;;;14.43;100.00;98768.78;5043594;28;20103;-72
2023/10/27 10:41:41;;;;;;;3.72;1.45;;;;;;;14.32;100.00;98768.50;5037873;28;20029;-71
2023/10/27 10:44:11;;;;;;;4.53;1.40;;;;;;;14.27;100.00;98769.69;5022364;28;20112;-71
2023/10/27 10:46:36;;;;;;;7.82;1.45;;;;;;;14.21;100.00;98778.66;5043426;28;20040;-71
2023/10/27 10:49:02;;;;;;;2.80;1.40;;;;;;;14.25;100.00;98782.75;5040612;28;20064;-71
2023/10/27 10:51:36;;;;;;;3.65;1.60;;;;;;;14.37;100.00;98787.28;5035225;28;20072;-72
2023/10/27 10:54:02;;;;;;;5.28;1.60;;;;;;;14.41;100.00;98781.03;5044364;28;20040;-71
2023/10/27 10:56:27;;;;;;;7.50;1.70;;;;;;;14.43;100.00;98786.97;5059802;28;20058;-71
2023/10/27 10:58:53;;;;;;;2.92;1.30;;;;;;;14.44;100.00;98783.47;5041444;28;20020;-72
2023/10/27 11:01:20;;;;;;;4.03;1.60;;;;;;;14.59;100.00;98786.97;5039412;28;20032;-71
2023/10/27 11:03:48;;;;;;;7.40;1.67;;;;;;;14.64;100.00;98785.78;5059293;28;20037;-71
2023/10/27 11:06:13;;;;;;;5.05;1.60;;;;;;;14.65;100.00;98784.88;5053074;28;20037;-70
2023/10/27 11:08:39;;;;;;;7.60;4.25;;;;;;;14.79;100.00;98793.63;5059418;28;20126;-67
2023/10/27 11:11:06;;;;;;;7.60;3.00;;;;;;;14.97;100.00;98782.19;5062719;28;20036;-67
2023/10/27 11:13:43;;;;;;;5.82;2.10;;;;;;;15.08;100.00;98775.44;5057474;28;20079;-67
2023/10/27 11:16:16;;;;;;;4.63;2.15;;;;;;;15.16;100.00;98780.19;5061189;28;20043;-66